Timeline UpdatesTrip UpdatesNews PostsPvt PostsTravel TipsAdmin PostsConv PostsFollowed PostsChat RequestsBlog PostsPNR Posts

Disclaimer
Search
 
 
Fri Aug 1, 2014 13:21:57 ISTHomeTrainsΣChainsAtlasPNRForumGalleryNewsFAQTripsMembersLoginFeedback
No Recent News for this Train
Other Trains in the News **new
Latest...
.
Fri Jan 17, 2014 (09:13PM)
⇐ Return Journey: Train# 13049

13050/Amritsar-Howrah Express

Oct 13 2013 (9:50PM)
Change Departure Station:
Change Arrival Station:
Post a Train Travel TipPost a Train Travel Tip **new
Post a Comment/Question/Picture/VideoPost a Comment/Question/Picture/Video
Pantry/Catering
✕ NO Pantry Car
✕ NO Catering
RSA - Rake Sharing
no RSA
Rake/Coach Composition
LOCO-HCPV-SLR-GEN-B1-S1-S2-S3-S4-GEN-GEN-GEN-GEN-GEN-GEN-MILITARY-SLR
Loco
WAM-4/ WAG-5 [HWH-MGS] LDH WDM2/3A/3D [MGS-MB] GZB WAP-5 [...
Read more...
MB-ASR].
News    PNR    Forum    Time-Table    Availability    Fare Chart    Map    Arr/Dep History    Trips    Gallery    ΣChains    X/O    Timeline    
Travel Time: 1h 53m    6 halts    Distance: 77 km    Avg Speed: 40 km/hr
Type: Mail/Express
Zone: ER/Eastern
Departs @ 10:28 (Avg 1h 52m late)
Platform# ???
SMTWTFS
Sitarampur Junction/STN 
Arrives @ 12:21 (Avg 1h 47m late)
Platform# ???
SMTWTFS
Mankar/MNAE 

6 halts. 16 intermediate Stations between Sitarampur Junction and Mankar

Show ALL intermediate Stations  Show Old Time-Table

#CodeStation NameX/OArrivesAvgDepartsAvgHaltPFDay#KmSpeedElevZoneAddress
1ASRAmritsar Junction (5)  -18:10+5251-1705.292233mNRAmritsar 143002, Punjab
2BEASBeas Junction (2)X  18:38+1:0518:40+1:052m21-1662.261238mNRBeas, Punjab
3KREKartarpur (2)X  19:01+1:0419:03+1:042m11-1640.773236mNRKartarpur, Punjab
4JUCJalandhar City Junction (5)X  19:15+1:0419:23+1:048m21-1626.122239mNRJalandhar 144001, Punjab
5JRCJalandhar Cantt. Junction (3)X  19:36+1:0219:38+1:032m21-1621.265239mNRNear Rama Mandi, Punjab
6PGWPhagwara Junction (3)X  19:53+1:0119:55+1:012m11-1604.975245mNRPhagwara, Punjab
7PHRPhillaur Junction (3)  20:13+1:0220:15+1:022m11-1582.452246mNRPhillaur, Punjab
8LDHLudhiana Junction (7)X  20:30+1:0320:40+1:0510m11-1569.351246mNRLudhiana 141001, Punjab
9KNNKhanna (3)X  21:30+1:0221:32+1:042m11-1526.561269mNRNH 1, Punjab
10GVGMandi Gobindgarh (2)X  21:40+1:0421:42+1:052m11-1518.353268mNRMandi Gobindgarh, Punjab
11SIRSirhind Junction (3)X  21:53+1:0321:55+1:032m11-1508.683271mNRSirhind, Punjab
12RPJRajpura Junction (3)X  22:13+1:0622:14+1:071m21-1483.756272mNRNH-1, Punjab
13UBCAmbala City (3)  22:36+1:0322:37+1:051m11-1463.220273mNRNH-1, Haryana
14UMBAmbala Cantt. Junction (7)X  23:00+5723:10+5710m11-1455.781278mNRAmbala 133001, Haryana
15JUDWJagadhri Workshop (2)  23:44+1:0123:45+1:021m11-1409.650280mNRRailway Workshop Road, Haryana
16JUDYamunanagar-Jagadhri (3)X  23:51+1:0123:53+1:022m21-1404.643275mNRYamunanagar, Haryana
17SRESaharanpur Junction (6)X  00:35+5400:55+5320m32-1374.574276mNRSaharanpur, Uttar Pradesh
18RKRoorkee (3)  01:23+1:1201:28+1:125m12-1339.844264mNRRoorkee - 247667, Uttarakhand
19LRJLaksar Junction (4)X  01:52+1:0801:57+1:085m12-1322.076238mNRLaksar, Uttarakhand
20NBDNajibabad Junction (3)X  02:30+1:1102:35+1:115m12-1280.162269mNRNajibabad, Uttar Pradesh
21MBMoradabad Junction (7)X  04:10+1:2004:20+1:2610m32-1181.251201mNRMoradabad, Uttar Pradesh
22RJKRaja Ka SahaspurX  04:48+1:3104:50+1:322m--2-1157.340196mNRBilari, Uttar Pradesh
23CHChandausi Junction (3)  05:20+1:2505:25+1:255m--2-1137.459193mNRChandausi, Uttar Pradesh
24AOAonla (2)06:08+1:2506:10+1:262m--2-1095.339176mNRDist. Bareilly, Uttar Pradesh
25PMRPitambarpur  07:22+1:2607:24+1:272m--2-1048.475171mNRPitambarpur, Uttar Pradesh
26TLHTilhar  07:50+1:3307:52+1:362m--2-1016.027163mNRTilhar, Uttar Pradesh
27SPNShahjahanpur Junction (3)X  08:32+1:1608:37+1:165m--2-997.860156mNRShahjahanpur, Uttar Pradesh
28AJIAnjhi Shahabad  09:08+1:1709:10+1:192m--2-967.077148mNRAnjhi Shahabad, Uttar Pradesh
29HRIHardoi (5)X  09:35+1:1909:40+1:195m32-934.864146mNRHardoi, Uttar Pradesh
30BLMBalamu Junction (4)  10:11+1:1610:13+1:162m--2-901.868139mNRBalamau, Uttar Pradesh
31SANSandila (3)  10:31+1:2010:33+1:202m--2-881.555132mNRSandila, Uttar Pradesh
32AMGAlamnagar (3)X  11:18+1:2611:20+1:272m22-840.017126mNRLucknow, Uttar Pradesh
33LKOLucknow Charbagh (9)  11:45+1:1812:10+1:1525m22-833.059123mNR226004, Uttar Pradesh
34HGHHaidergarh (2)X  13:08+1:2813:09+1:321m12-776.244116mNRState Highway 13, Uttar Pradesh
35AKJAkbarGanj (1)  13:32+1:3113:33+1:351m12-759.376112mNRSH 31, Uttar Pradesh
36NHHNihalgarh (3)  13:45+1:4213:47+1:502m12-744.071108mNRJagdishpur, Uttar Pradesh
37MFKAMusafir Khana (3)  14:03+2:0614:04+2:081m12-725.149105mNRMusfirKhana, Uttar Pradesh
38SLNSultanpur Junction (3)X  14:43+2:1014:48+2:195m22-693.67399mNRSultanpur., Uttar Pradesh
39LBALambhua (1)  15:06+2:3715:08+2:372m12-671.75797mNRLambhua, Uttar Pradesh
40KEPRKoiripur (1)  15:26+2:4015:27+2:421m12-654.58096mNRNational Highway 56, Uttar Pradesh
41HRPGHarpalGanj (1)  15:35+2:4815:37+2:502m12-643.84490mNRNational Highway 56, Uttar Pradesh
42SKNSri Krishna Nagar (2)X  15:48+2:5115:49+2:511m12-635.85892mNRBadlapur, Uttar Pradesh
43JOPJaunpur City (3)X  16:18+2:5216:20+2:532m12-607.82187mNRJaunpur, Uttar Pradesh
44ZBDZafarabad Junction (4)X  16:38+2:4716:40+2:462m12-601.52583mNRNational Highway 56, Uttar Pradesh
45KSFKhalispur (2)X  17:37+2:1517:39+2:142m--2-578.22683mNRPhulpur, Uttar Pradesh
46PDRDPindra Road (2)  17:48-17:49-1m--2-574.32581mNRSatomahua-Mangari Rd, Uttar Pradesh
47BTPBabatpur (2)X  18:02+2:0818:03+2:081m--2-568.82784mNRSatomahua-Mangari Rd, Uttar Pradesh
48SOPShivpur (3)  18:32+1:5618:34+1:572m--2-555.91681mNRVaranasi, Uttar Pradesh
49BSBVaranasi Junction (9)X  18:55+1:5319:15+1:5520m62-550.32382mNRVaranasi 221002, Uttar Pradesh
50KEIKashi (3)  19:29+1:5819:31+2:002m--2-545.01385mNRVaranasi, Uttar Pradesh
51MGSMughal Sarai Junction (8)X20:20+1:4320:40+1:4620m12-534.04083mECRMughalsarai 232101, Uttar Pradesh
52KCAKuchman (2)X  20:56+1:5420:58+1:542m--2-523.47679mECRKuchman, Uttar Pradesh
53SLDSakaldiha (2)X  21:04+1:5521:06+1:582m--2-515.87581mECRState Highway 69, Uttar Pradesh
54DHADheena  21:17+2:0221:19+2:062m--2-502.17474mECRDheena, Uttar Pradesh
55ZNAZamania (2)X  21:29+2:0521:31+2:062m--2-489.86277mECRGhazipur, Uttar Pradesh
56DLNDildarnagar Junction (2)XO  21:44+2:0821:46+2:102m--2-476.36772mECRDildarnagar, Uttar Pradesh
57BWHBhadaura (2)X  21:53+2:1121:55+2:112m--2-468.47069mECRGhazipur, Uttar Pradesh
58GMRGahmar (2)  22:02+2:1222:04+2:142m--2-460.24668mECRDistt: Ghazipur, Uttar Pradesh
59CSAChausa (2)X  22:16+2:1622:18+2:162m--2-451.06668mECRState Highway 14, Bihar
60BXRBuxar (3)X  22:28+2:1422:32+2:154m--2-440.18967mECRBuxar, Bihar
61DUREDumraon (3)  22:43+2:1922:45+2:192m--2-423.76570mECRDumraon, Bihar
62TWGTwining GanjX  22:52+2:2122:54+2:222m--2-416.16370mECRArrah Buxar Rd, Bihar
63RPRRaghunathpur (4)XO  23:02+2:2323:04+2:252m--2-407.86669mECRRaghunathpur, Bihar
64BYNBanahi (2)  23:12+2:2523:14+2:242m--2-398.95967mECRBanahi, Bihar
65BEABihiya (3)X  23:20+2:2523:22+2:262m--2-393.04167mECRBehea, Bihar
66ARAAra Junction (3)X  23:53+2:0923:58+2:085m--2-371.68363mECRarrah( 06182-233411), Bihar
67BTABihta (2)X  00:14+2:1800:16+2:202m--3-349.41762mECRDistt: Patna, Bihar
68DNRDanapur (5)X  01:18+1:4601:28+1:5410m--3-332.01258mECRKhagaul, Bihar
69PNBEPatna Junction (10)X  02:15+1:4502:30+1:5315m--3-322.64257mECRPatna 800001, Bihar
70PNCPatna Saheb (3)  02:44+1:5202:46+1:532m--3-312.86159mECRPatna, Bihar
71FUTFatwa (6)X  02:58+1:5103:00+1:552m--3-300.56953mECRPatna, Bihar
72BKPBakhtiyarpur Junction (5)  03:20+2:0603:22+2:092m--3-277.59151mECRPatna, Bihar
73BARHBarh (3)X  03:34+2:1003:36+2:112m--3-259.36549mECRBarh, Bihar
74MKAMokama Junction (3)O  04:00+2:2104:02+2:212m--3-233.46348mECRPatna, Bihar
75HTZHathidah Junction (2)X  04:10+2:1504:12+2:152m13-225.03550mECRMusahari, Bihar
76BRYABarhiya (3)X  04:28+2:2104:30+2:212m--3-215.66547mECRBarahiya, Bihar
77LKRLuckeesarai Junction (2)X  04:44+2:1704:46+2:172m--3-200.5952mECRLakhisarai, Bihar
78KIULKiul Junction (5)X  04:55+2:1405:00+2:215m--3-199.22053mECRDist. Lakhisarai, Bihar
79MNPMananpur (2)X  05:21+2:1405:23+2:162m--3-192.210257mECRState Highway 18, Bihar
80JMUJamui (3)  05:35+2:1705:37+2:182m--3-171.97381mECRState Highway 72, Bihar
81GHRGidhaur (2)X  05:49+2:2005:51+2:202m--3-157.39106mECRState Highway 18, Bihar
82JAJJhajha (4)  07:07+1:3007:17+1:3410m--3-145.975143mECRJhajha, Bihar
83STLSimultala (2)X  07:32+1:4607:34+1:472m--3-127.255247mERSimultala, Bihar
84LHBLahabon (3)X  07:45+5807:46+571m--3-117.065259mERDeoghar, Jharkhand
85JSMEJasidih Junction (5)  08:00+2:0808:05+2:095m--3-101.875271mERJasidih, Jharkhand
86MUWMathurapur (2)  08:19+2:0308:21+2:022m--3-84.354261mERDeoghar, Jharkhand
87MDPMadhupur Junction (4)X  08:34+2:0508:44+2:0110m33-72.781254mER06432-224478, Jharkhand
88VDSVidyasagar (2)X  09:02+1:5609:04+1:582m--3-48.567250mERJamtara, Jharkhand
89JMTJamtara (2)  09:20+2:0309:22+2:042m23-30.648201mERJamtara, Jharkhand
90CRJChittaranjan (3)X  09:40+1:5409:42+1:572m23-16.355182mERMihijam, Jharkhand
91RNPRRupnarayanpur (3)XO  09:47+1:5509:49+1:552m--3-11.819191mERChittaranjan, West Bengal
92STN»Sitarampur Junction (5)»O  10:26+1:4210:28+1:522m--30.024139mERG T Rd Before Asansol, West Bengal
93ASNAsansol Junction (7)X  10:50+1:5311:05+1:5215m338.872113mERDist - bardhaman, West Bengal
94RNGRaniGanj (4)X  11:20+1:5611:22+1:562m--326.94092mERRaniganj, West Bengal
95UDLAndal Junction (6)  11:33+1:4611:35+1:452m--334.28286mERAndal, West Bengal
96OYRWaria (4)  11:41+1:5311:43+1:542m--342.45372mERDurgapur, West Bengal
97DGRDurgapur (5)  11:53+1:5111:57+1:494m--351.29471mERDurgapur, West Bengal
98PANPanagarh (4)X  12:07+2:0112:09+2:002m--366.85170mERKaksa, West Bengal
99MNAE•Mankar (4)•  12:21+1:4712:23+1:462m--377.04965mERMankur, West Bengal
100KANKhana Junction (5)X  12:53+1:3712:55+1:392m--3101.76042mERDist - Bardhaman, West Bengal
101BWNBarddhaman Junction (8)X  13:08+1:3413:13+1:355m--3114.76534mERDist - Barddhaman, West Bengal
102BDCBandel Junction (7)  14:15+1:2414:23+1:248m--3182.04514mERdist - HOOGHLY, West Bengal
103CNSChuchura (3)  14:28+2:0114:30+1:582m--3185.84515mERDist - HOOGHLY - 712102, West Bengal
104CGRChandan Nagar (3)X  14:34+1:1014:36+1:102m--3188.84316mERDist -HOOGHLY - 712136, West Bengal
105SHESeoraphuli Junction (6)  14:51+1:2214:53+1:212m--3199.43813mERBaidyabati, West Bengal
106SRPSerampore (4)  14:57+1:0214:59+1:022m--3201.92611mERdist - hooghly, West Bengal
107HWHKolkata Howrah Junction (23)  15:45+1:39-113221.6-10mERHowrah 711101, West Bengal
Scroll to Top
Scroll to Bottom